Pagrindinis puslapis
METAR-TAF:

METAR-TAF

Oro uostai :

Kokosų, Australija

platuma: 12-11S, ilguma: 096-49E, Aukštis: 3 m

Dabartinis oras

Ataskaita buvo paskelbta 31 minutes, ne 04:30 UTC
Vėjas 7 kt iš Šiaurės Rytų, svyruoja nuo Šiaurės ir Rytų/Šiaurės Rytų
Temperatūra 29°C
Drėgmė 74%
Slėgis 1012 hPa
Matomumas 10 km arba daugiau
Mažai debesys ne aukštis 2000 ft

METAR: YPCC 140430Z 05007KT 360V070 9999 FEW020 29/24 Q1012 RF00.0/000.0

Laikas: 11:31 (05:01 UTC)

Prognozė

Ataskaita buvo paskelbta 5 valandos ir 44 minutes, ne 23:17 UTC
Prognozė galioja nuo 14 metu 00 UTC su 15 metu 00 UTC
Vėjas 14 kt iš Rytų/Šiaurės Rytų
Matomumas 10 km arba daugiau
Išsisklaidę debesys ne aukštis 2000 ft
Nuo 14 metu 0900 UTC
Vėjas 12 kt iš Rytų
Matomumas 10 km arba daugiau
Išsisklaidę debesys ne aukštis 2000 ft

TAF: YPCC 132317Z 1400/1500 07014KT 9999 SCT020 FM140900 10012KT 9999 SCT020

Orai ataskaitas ir orų prognozės (METAR, TAF).

turimą stotys yra geltonos ir raudonos taškus žemėlapyje.

Perkelti pele per norėdami pamatyti stoties vardą.

Tada spustelėkite, norėdami matyti oro stebėjimo ir prognozės.

Norėdami pakeisti žemėlapį: spustelėkite ant žalios mygtukų su juodo kryžiaus žemyn,; žalią mygtuką su brūkšneliu, jei norite nutolinti; arba žalių rodyklių gretimoms žemėlapius.


METAR-TAF: